createdAt,value
2018-02-12T00:01:03.986Z,0
2018-02-12T00:02:13.934Z,0
2018-02-12T00:03:23.884Z,0
2018-02-12T00:04:33.832Z,0
2018-02-12T00:05:43.525Z,0
2018-02-12T00:06:53.455Z,0
2018-02-12T00:08:03.147Z,0
2018-02-12T00:09:13.089Z,0
2018-02-12T00:10:22.771Z,0
2018-02-12T00:11:32.462Z,0
2018-02-12T00:12:42.145Z,0
2018-02-12T00:13:52.084Z,0
2018-02-12T00:15:01.761Z,0
2018-02-12T00:16:11.455Z,0
2018-02-12T00:17:21.137Z,0
2018-02-12T00:18:31.090Z,0
2018-02-12T00:19:41.028Z,0
2018-02-12T00:20:50.713Z,0
2018-02-12T00:22:00.664Z,0
2018-02-12T00:23:10.599Z,0
2018-02-12T00:24:20.289Z,0
2018-02-12T00:25:29.739Z,0
2018-02-12T00:26:39.687Z,0
2018-02-12T00:27:49.663Z,0
2018-02-12T00:28:59.344Z,0
2018-02-12T00:30:09.296Z,0
2018-02-12T00:31:19.249Z,0
2018-02-12T00:32:29.204Z,0
2018-02-12T00:33:39.142Z,0
2018-02-12T00:34:48.829Z,0
2018-02-12T00:35:58.776Z,0
2018-02-12T00:37:08.718Z,0
2018-02-12T00:38:18.402Z,0
2018-02-12T00:39:28.340Z,0
2018-02-12T00:40:38.300Z,0
2018-02-12T00:41:47.983Z,0
2018-02-12T00:42:57.924Z,0
2018-02-12T00:44:07.856Z,0
2018-02-12T00:45:17.800Z,0
2018-02-12T00:46:27.478Z,0
2018-02-12T00:47:37.165Z,0
2018-02-12T00:48:47.110Z,0
2018-02-12T00:49:57.051Z,0
2018-02-12T00:51:06.993Z,0
2018-02-12T00:52:16.728Z,0
2018-02-12T00:53:26.678Z,0
2018-02-12T00:54:36.615Z,0
2018-02-12T00:55:46.550Z,0
2018-02-12T00:56:56.488Z,0
2018-02-12T00:58:06.478Z,0
2018-02-12T00:59:16.420Z,0
2018-02-12T01:00:26.106Z,0
2018-02-12T01:01:36.072Z,0
2018-02-12T01:02:45.772Z,0
2018-02-12T01:03:55.464Z,0
2018-02-12T01:05:05.404Z,0
2018-02-12T01:06:15.339Z,0
2018-02-12T01:07:25.285Z,0
2018-02-12T01:08:35.221Z,0
2018-02-12T01:09:45.165Z,0
2018-02-12T01:10:54.587Z,0
2018-02-12T01:12:04.275Z,0
2018-02-12T01:13:14.213Z,0
2018-02-12T01:14:23.905Z,0
2018-02-12T01:15:33.403Z,0
2018-02-12T01:16:43.361Z,0
2018-02-12T01:17:53.303Z,0
2018-02-12T01:19:03.236Z,0
2018-02-12T01:20:13.177Z,0
2018-02-12T01:21:23.112Z,0
2018-02-12T01:22:32.800Z,0
2018-02-12T01:23:42.740Z,0
2018-02-12T01:24:52.427Z,0
2018-02-12T01:26:02.371Z,0
2018-02-12T01:27:12.329Z,0
2018-02-12T01:28:22.266Z,0
2018-02-12T01:29:32.247Z,0
2018-02-12T01:30:42.196Z,0
2018-02-12T01:31:51.881Z,0
2018-02-12T01:33:01.827Z,0
2018-02-12T01:34:11.760Z,0
2018-02-12T01:35:21.460Z,0
2018-02-12T01:36:31.146Z,0
2018-02-12T01:37:40.838Z,0
2018-02-12T01:38:50.512Z,0
2018-02-12T01:40:00.449Z,0
2018-02-12T01:41:10.137Z,0
2018-02-12T01:42:20.083Z,0
2018-02-12T01:43:29.771Z,0
2018-02-12T01:44:39.712Z,0
2018-02-12T01:45:49.668Z,0
2018-02-12T01:46:59.609Z,0
2018-02-12T01:48:09.311Z,0
2018-02-12T01:49:19.249Z,0
2018-02-12T01:50:28.944Z,0
2018-02-12T01:51:38.876Z,0
2018-02-12T01:52:48.822Z,0
2018-02-12T01:53:58.764Z,0
2018-02-12T01:55:08.449Z,0
2018-02-12T01:56:17.875Z,0
2018-02-12T01:57:27.564Z,0
2018-02-12T01:58:37.508Z,0
2018-02-12T01:59:47.442Z,0
2018-02-12T02:00:57.117Z,0
2018-02-12T02:02:07.065Z,0
2018-02-12T02:03:17.018Z,0
2018-02-12T02:04:26.948Z,0
2018-02-12T02:05:36.886Z,0
2018-02-12T02:06:46.561Z,0
2018-02-12T02:07:56.495Z,0
2018-02-12T02:09:06.436Z,0
2018-02-12T02:10:16.390Z,0
2018-02-12T02:11:26.076Z,0
2018-02-12T02:12:36.020Z,0
2018-02-12T02:13:45.459Z,0
2018-02-12T02:14:55.402Z,0
2018-02-12T02:16:05.128Z,0
2018-02-12T02:17:15.061Z,0
2018-02-12T02:18:24.990Z,0
2018-02-12T02:19:34.937Z,0
2018-02-12T02:20:44.874Z,0
2018-02-12T02:21:54.556Z,0
2018-02-12T02:23:04.498Z,0
2018-02-12T02:24:14.177Z,0
2018-02-12T02:25:24.131Z,0
2018-02-12T02:26:34.066Z,0
2018-02-12T02:27:44.053Z,0
2018-02-12T02:28:53.984Z,0
2018-02-12T02:30:03.150Z,0
2018-02-12T02:31:13.108Z,0
2018-02-12T02:32:23.058Z,0
2018-02-12T02:33:33.006Z,0
2018-02-12T02:34:42.689Z,0
2018-02-12T02:35:52.637Z,0
2018-02-12T02:37:02.079Z,0
2018-02-12T02:38:11.766Z,0
2018-02-12T02:39:21.517Z,0
2018-02-12T02:40:31.454Z,0
2018-02-12T02:41:41.393Z,0
2018-02-12T02:42:51.334Z,0
2018-02-12T02:44:00.770Z,0
2018-02-12T02:45:10.706Z,0
2018-02-12T02:46:20.669Z,0
2018-02-12T02:47:30.357Z,0
2018-02-12T02:48:40.302Z,0
2018-02-12T02:49:50.245Z,0
2018-02-12T02:50:59.676Z,0
2018-02-12T02:52:09.644Z,0
2018-02-12T02:53:19.349Z,0
2018-02-12T02:54:29.057Z,0
2018-02-12T02:55:39.000Z,0
2018-02-12T02:56:48.689Z,0
2018-02-12T02:57:58.630Z,0
2018-02-12T02:59:08.326Z,0
2018-02-12T03:00:18.269Z,0
2018-02-12T03:01:28.212Z,0
2018-02-12T03:02:38.163Z,0
2018-02-12T03:03:48.113Z,0
2018-02-12T03:04:58.056Z,0
2018-02-12T03:06:08.008Z,0
2018-02-12T03:07:17.942Z,0
2018-02-12T03:08:27.782Z,0
2018-02-12T03:09:37.727Z,0
2018-02-12T03:10:47.665Z,0
2018-02-12T03:11:57.620Z,0
2018-02-12T03:13:07.300Z,0
2018-02-12T03:14:17.238Z,0
2018-02-12T03:15:27.170Z,0
2018-02-12T03:16:37.097Z,0
2018-02-12T03:17:47.037Z,0
2018-02-12T03:18:56.713Z,0
2018-02-12T03:20:06.652Z,0
2018-02-12T03:21:16.594Z,0
2018-02-12T03:22:26.284Z,0
2018-02-12T03:23:35.706Z,0
2018-02-12T03:24:45.662Z,0
2018-02-12T03:25:55.595Z,0
2018-02-12T03:27:05.285Z,0
2018-02-12T03:28:15.219Z,0
2018-02-12T03:29:25.161Z,0
2018-02-12T03:30:34.863Z,0
2018-02-12T03:31:44.809Z,0
2018-02-12T03:32:54.968Z,0
2018-02-12T03:34:04.952Z,0
2018-02-12T03:35:14.638Z,0
2018-02-12T03:36:24.323Z,0
2018-02-12T03:37:34.463Z,0
2018-02-12T03:38:44.409Z,0
2018-02-12T03:39:53.570Z,0
2018-02-12T03:41:03.255Z,0
2018-02-12T03:42:13.241Z,0
2018-02-12T03:43:22.922Z,0
2018-02-12T03:44:32.861Z,0
2018-02-12T03:45:42.806Z,0
2018-02-12T03:46:52.242Z,0
2018-02-12T03:48:01.921Z,0
2018-02-12T03:49:11.878Z,0
2018-02-12T03:50:21.831Z,0
2018-02-12T03:51:31.511Z,0
2018-02-12T03:52:41.468Z,0
2018-02-12T03:53:51.145Z,0
2018-02-12T03:55:00.829Z,0
2018-02-12T03:56:10.509Z,0
2018-02-12T03:57:20.460Z,0
2018-02-12T03:58:30.412Z,0
2018-02-12T03:59:40.097Z,0
2018-02-12T04:00:50.132Z,0
2018-02-12T04:02:00.096Z,0
2018-02-12T04:03:09.774Z,0
2018-02-12T04:04:19.456Z,0
2018-02-12T04:05:29.394Z,0
2018-02-12T04:06:39.127Z,0
2018-02-12T04:07:48.823Z,0
2018-02-12T04:08:58.507Z,0
2018-02-12T04:10:08.189Z,0
2018-02-12T04:11:18.136Z,0
2018-02-12T04:12:27.830Z,0
2018-02-12T04:13:37.763Z,0
2018-02-12T04:14:47.715Z,0
2018-02-12T04:15:57.410Z,0
2018-02-12T04:17:07.108Z,0
2018-02-12T04:18:16.796Z,0
2018-02-12T04:19:26.479Z,0
2018-02-12T04:20:36.171Z,0
2018-02-12T04:21:46.110Z,0
2018-02-12T04:22:56.053Z,0
2018-02-12T04:24:06.001Z,0
2018-02-12T04:25:15.942Z,0
2018-02-12T04:26:25.891Z,0
2018-02-12T04:27:35.831Z,0
2018-02-12T04:28:45.511Z,0
2018-02-12T04:29:55.452Z,0
2018-02-12T04:31:05.406Z,0
2018-02-12T04:32:15.336Z,0
2018-02-12T04:33:25.277Z,0
2018-02-12T04:34:34.953Z,0
2018-02-12T04:35:44.890Z,0
2018-02-12T04:36:54.828Z,0
2018-02-12T04:38:04.512Z,0
2018-02-12T04:39:14.199Z,0
2018-02-12T04:40:24.156Z,0
2018-02-12T04:41:34.101Z,0
2018-02-12T04:42:44.036Z,0
2018-02-12T04:43:53.982Z,0
2018-02-12T04:45:03.925Z,0
2018-02-12T04:46:13.862Z,0
2018-02-12T04:47:23.542Z,0
2018-02-12T04:48:33.501Z,0
2018-02-12T04:49:43.495Z,0
2018-02-12T04:50:53.436Z,0
2018-02-12T04:52:03.386Z,0
2018-02-12T04:53:13.327Z,0
2018-02-12T04:54:23.006Z,0
2018-02-12T04:55:32.942Z,0
2018-02-12T04:56:42.886Z,0
2018-02-12T04:57:52.838Z,0
2018-02-12T04:59:02.768Z,0
2018-02-12T05:00:12.701Z,0
2018-02-12T05:01:22.650Z,0
2018-02-12T05:02:32.600Z,0
2018-02-12T05:03:42.550Z,0
2018-02-12T05:04:52.497Z,0
2018-02-12T05:06:02.568Z,0
2018-02-12T05:07:12.516Z,0
2018-02-12T05:08:22.461Z,0
2018-02-12T05:09:32.402Z,0
2018-02-12T05:10:42.348Z,0
2018-02-12T05:11:52.288Z,0
2018-02-12T05:13:01.710Z,0
2018-02-12T05:14:11.393Z,0
2018-02-12T05:15:21.330Z,0
2018-02-12T05:16:31.016Z,0
2018-02-12T05:17:40.959Z,0
2018-02-12T05:18:50.639Z,0
2018-02-12T05:20:00.333Z,0
2018-02-12T05:21:10.023Z,0
2018-02-12T05:22:19.960Z,0
2018-02-12T05:23:29.908Z,0
2018-02-12T05:24:39.847Z,0
2018-02-12T05:25:49.785Z,0
2018-02-12T05:26:58.967Z,0
2018-02-12T05:28:08.402Z,0
2018-02-12T05:29:18.359Z,0
2018-02-12T05:30:27.786Z,0
2018-02-12T05:31:37.744Z,0
2018-02-12T05:32:47.680Z,0
2018-02-12T05:33:57.379Z,0
2018-02-12T05:35:07.328Z,0
2018-02-12T05:36:17.266Z,0
2018-02-12T05:37:27.216Z,0
2018-02-12T05:38:36.895Z,0
2018-02-12T05:39:46.830Z,0
2018-02-12T05:40:56.773Z,0
2018-02-12T05:42:06.729Z,0
2018-02-12T05:43:16.163Z,0
2018-02-12T05:44:26.121Z,0
2018-02-12T05:45:36.067Z,0
2018-02-12T05:46:46.004Z,0
2018-02-12T05:47:55.948Z,0
2018-02-12T05:49:05.887Z,0
2018-02-12T05:50:15.576Z,0
2018-02-12T05:51:25.028Z,0
2018-02-12T05:52:34.710Z,0
2018-02-12T05:53:44.648Z,0
2018-02-12T05:54:54.082Z,0
2018-02-12T05:56:04.031Z,0
2018-02-12T05:57:13.735Z,0
2018-02-12T05:58:23.729Z,0
2018-02-12T05:59:32.917Z,0
2018-02-12T06:00:42.856Z,0
2018-02-12T06:01:52.558Z,0
2018-02-12T06:03:02.521Z,0
2018-02-12T06:04:12.452Z,0
2018-02-12T06:05:22.406Z,0
2018-02-12T06:06:32.357Z,0
2018-02-12T06:07:42.306Z,0
2018-02-12T06:08:52.248Z,0
2018-02-12T06:10:02.214Z,0
2018-02-12T06:11:12.173Z,0
2018-02-12T06:12:22.119Z,0
2018-02-12T06:13:32.071Z,0
2018-02-12T06:14:42.007Z,0
2018-02-12T06:15:51.429Z,0
2018-02-12T06:17:01.135Z,0
2018-02-12T06:18:11.162Z,0
2018-02-12T06:19:21.107Z,0
2018-02-12T06:20:30.794Z,0
2018-02-12T06:21:40.745Z,0
2018-02-12T06:22:50.690Z,0
2018-02-12T06:24:00.131Z,0
2018-02-12T06:25:09.828Z,0
2018-02-12T06:26:19.518Z,0
2018-02-12T06:27:29.470Z,0
2018-02-12T06:28:39.417Z,5
2018-02-12T06:29:49.109Z,5
2018-02-12T06:30:58.866Z,5
2018-02-12T06:32:08.831Z,5
2018-02-12T06:33:18.530Z,5
2018-02-12T06:34:28.482Z,10
2018-02-12T06:35:38.175Z,10
2018-02-12T06:36:47.871Z,10
2018-02-12T06:37:57.556Z,10
2018-02-12T06:39:06.996Z,10
2018-02-12T06:40:16.956Z,10
2018-02-12T06:41:26.912Z,15
2018-02-12T06:42:36.868Z,15
2018-02-12T06:43:46.815Z,20
2018-02-12T06:44:56.757Z,20
2018-02-12T06:46:06.691Z,25
2018-02-12T06:47:16.702Z,25
2018-02-12T06:48:26.411Z,25
2018-02-12T06:49:36.364Z,20
2018-02-12T06:50:46.313Z,20
2018-02-12T06:51:56.280Z,20
2018-02-12T06:53:06.231Z,25
2018-02-12T06:54:15.936Z,35
2018-02-12T06:55:25.643Z,40
2018-02-12T06:56:35.599Z,40
2018-02-12T06:57:45.299Z,40
2018-02-12T06:58:54.999Z,40
2018-02-12T07:00:04.684Z,40
2018-02-12T07:01:14.394Z,45
2018-02-12T07:02:24.347Z,45
2018-02-12T07:03:34.037Z,40
2018-02-12T07:04:43.733Z,45
2018-02-12T07:05:53.708Z,40
2018-02-12T07:07:03.665Z,45
2018-02-12T07:08:13.638Z,45
2018-02-12T07:09:23.328Z,45
2018-02-12T07:10:33.250Z,45
2018-02-12T07:11:42.968Z,45
2018-02-12T07:12:52.727Z,50
2018-02-12T07:14:02.952Z,45
2018-02-12T07:15:12.911Z,50
2018-02-12T07:16:22.609Z,55
2018-02-12T07:17:32.568Z,55
2018-02-12T07:18:42.511Z,55
2018-02-12T07:19:52.516Z,60
2018-02-12T07:21:01.968Z,70
2018-02-12T07:22:11.399Z,75
2018-02-12T07:23:21.358Z,75
2018-02-12T07:24:31.338Z,80
2018-02-12T07:25:41.034Z,85
2018-02-12T07:26:50.976Z,80
2018-02-12T07:28:00.956Z,85
2018-02-12T07:29:10.928Z,95
2018-02-12T07:30:20.873Z,100
2018-02-12T07:31:30.577Z,105
2018-02-12T07:32:40.534Z,115
2018-02-12T07:33:50.497Z,115
2018-02-12T07:35:00.457Z,120
2018-02-12T07:36:10.155Z,120
2018-02-12T07:37:19.875Z,120
2018-02-12T07:38:29.831Z,120
2018-02-12T07:39:39.786Z,120
2018-02-12T07:40:49.744Z,120
2018-02-12T07:41:59.443Z,120
2018-02-12T07:43:09.415Z,125
2018-02-12T07:44:19.365Z,130
2018-02-12T07:45:29.087Z,135
2018-02-12T07:46:38.818Z,140
2018-02-12T07:47:48.777Z,145
2018-02-12T07:48:58.496Z,145
2018-02-12T07:50:08.444Z,150
2018-02-12T07:51:18.155Z,160
2018-02-12T07:52:28.105Z,160
2018-02-12T07:53:38.068Z,150
2018-02-12T07:54:47.777Z,150
2018-02-12T07:55:57.763Z,155
2018-02-12T07:57:07.736Z,165
2018-02-12T07:58:17.434Z,185
2018-02-12T07:59:27.385Z,205
2018-02-12T08:00:37.422Z,225
2018-02-12T08:01:47.386Z,240
2018-02-12T08:02:57.095Z,240
2018-02-12T08:04:06.563Z,245
2018-02-12T08:05:16.255Z,250
2018-02-12T08:06:25.976Z,260
2018-02-12T08:07:35.688Z,270
2018-02-12T08:08:45.145Z,270
2018-02-12T08:09:55.111Z,265
2018-02-12T08:11:05.053Z,265
2018-02-12T08:12:15.234Z,275
2018-02-12T08:13:25.185Z,290
2018-02-12T08:14:34.889Z,290
2018-02-12T08:15:44.849Z,290
2018-02-12T08:16:54.550Z,285
2018-02-12T08:18:04.265Z,280
2018-02-12T08:19:13.974Z,275
2018-02-12T08:20:23.995Z,285
2018-02-12T08:21:33.711Z,290
2018-02-12T08:22:43.172Z,285
2018-02-12T08:23:53.125Z,260
2018-02-12T08:25:02.580Z,240
2018-02-12T08:26:12.556Z,210
2018-02-12T08:27:22.264Z,185
2018-02-12T08:28:32.203Z,160
2018-02-12T08:29:41.900Z,155
2018-02-12T08:30:51.597Z,175
2018-02-12T08:32:01.415Z,200
2018-02-12T08:33:11.115Z,255
2018-02-12T08:34:21.072Z,290
2018-02-12T08:35:30.854Z,330
2018-02-12T08:36:40.571Z,330
2018-02-12T08:37:50.562Z,365
2018-02-12T08:39:00.553Z,385
2018-02-12T08:40:10.009Z,365
2018-02-12T08:41:19.969Z,315
2018-02-12T08:42:29.923Z,265
2018-02-12T08:43:39.875Z,220
2018-02-12T08:44:49.842Z,185
2018-02-12T08:45:59.825Z,170
2018-02-12T08:47:09.805Z,165
2018-02-12T08:48:19.595Z,165
2018-02-12T08:49:29.550Z,170
2018-02-12T08:50:39.739Z,165
2018-02-12T08:51:49.731Z,160
2018-02-12T08:52:59.698Z,145
2018-02-12T08:54:09.702Z,150
2018-02-12T08:55:19.707Z,150
2018-02-12T08:56:29.717Z,135
2018-02-12T08:57:39.445Z,145
2018-02-12T08:58:49.148Z,150
2018-02-12T08:59:59.112Z,150
2018-02-12T09:01:09.079Z,170
2018-02-12T09:02:19.123Z,160
2018-02-12T09:03:29.079Z,150
2018-02-12T09:04:39.028Z,150
2018-02-12T09:05:48.722Z,170
2018-02-12T09:06:58.683Z,180
2018-02-12T09:08:08.632Z,190
2018-02-12T09:09:18.081Z,180
2018-02-12T09:10:28.037Z,180
2018-02-12T09:11:37.995Z,210
2018-02-12T09:12:47.708Z,235
2018-02-12T09:13:57.463Z,265
2018-02-12T09:15:07.175Z,265
2018-02-12T09:16:16.890Z,260
2018-02-12T09:17:26.859Z,255
2018-02-12T09:18:36.808Z,255
2018-02-12T09:19:46.767Z,275
2018-02-12T09:20:56.487Z,305
2018-02-12T09:22:06.247Z,280
2018-02-12T09:23:15.946Z,265
2018-02-12T09:24:25.911Z,250
2018-02-12T09:25:36.129Z,220
2018-02-12T09:26:46.136Z,235
2018-02-12T09:27:56.132Z,270
2018-02-12T09:29:06.084Z,315
2018-02-12T09:30:16.035Z,330
2018-02-12T09:31:26.000Z,330
2018-02-12T09:32:35.934Z,290
2018-02-12T09:33:45.896Z,280
2018-02-12T09:34:55.588Z,285
2018-02-12T09:36:05.329Z,290
2018-02-12T09:37:15.325Z,270
2018-02-12T09:38:25.012Z,220
2018-02-12T09:39:34.961Z,200
2018-02-12T09:40:44.663Z,195
2018-02-12T09:41:54.667Z,190
2018-02-12T09:43:04.145Z,190
2018-02-12T09:44:14.108Z,195
2018-02-12T09:45:24.092Z,210
2018-02-12T09:46:33.804Z,205
2018-02-12T09:47:44.066Z,220
2018-02-12T09:48:54.011Z,240
2018-02-12T09:50:03.981Z,270
2018-02-12T09:51:13.969Z,275
2018-02-12T09:52:23.427Z,370
2018-02-12T09:53:33.399Z,515
2018-02-12T09:54:43.412Z,695
2018-02-12T09:55:53.183Z,845
2018-02-12T09:57:03.150Z,790
2018-02-12T09:58:12.861Z,1015
2018-02-12T09:59:22.830Z,570
2018-02-12T10:00:32.017Z,530
2018-02-12T10:01:41.973Z,485
2018-02-12T10:02:51.925Z,415
2018-02-12T10:04:01.642Z,360
2018-02-12T10:05:11.592Z,320
2018-02-12T10:06:21.640Z,325
2018-02-12T10:07:31.179Z,360
2018-02-12T10:08:40.574Z,445
2018-02-12T10:09:50.875Z,540
2018-02-12T10:11:00.589Z,625
2018-02-12T10:12:10.607Z,725
2018-02-12T10:13:20.671Z,635
2018-02-12T10:14:30.394Z,655
2018-02-12T10:15:40.390Z,1490
2018-02-12T10:16:50.826Z,1025
2018-02-12T10:18:00.814Z,1060
2018-02-12T10:19:10.817Z,675
2018-02-12T10:20:20.782Z,655
2018-02-12T10:21:30.483Z,700
2018-02-12T10:22:40.437Z,565
2018-02-12T10:23:50.403Z,490
2018-02-12T10:25:00.366Z,575
2018-02-12T10:26:10.084Z,660
2018-02-12T10:27:20.041Z,755
2018-02-12T10:28:29.992Z,945
2018-02-12T10:29:39.949Z,765
2018-02-12T10:30:49.922Z,735
2018-02-12T10:31:59.621Z,925
2018-02-12T10:33:09.587Z,560
2018-02-12T10:34:19.560Z,520
2018-02-12T10:35:29.567Z,500
2018-02-12T10:36:39.281Z,510
2018-02-12T10:37:49.251Z,530
2018-02-12T10:38:59.210Z,370
2018-02-12T10:40:09.161Z,395
2018-02-12T10:41:18.918Z,475
2018-02-12T10:42:28.893Z,700
2018-02-12T10:43:38.863Z,415
2018-02-12T10:44:48.827Z,400
2018-02-12T10:45:58.789Z,425
2018-02-12T10:47:08.846Z,725
2018-02-12T10:48:18.838Z,540
2018-02-12T10:49:28.571Z,555
2018-02-12T10:50:38.551Z,495
2018-02-12T10:51:48.531Z,525
2018-02-12T10:52:58.226Z,620
2018-02-12T10:54:08.178Z,1845
2018-02-12T10:55:18.152Z,475
2018-02-12T10:56:27.842Z,510
2018-02-12T10:57:37.293Z,580
2018-02-12T10:58:47.265Z,735
2018-02-12T10:59:57.251Z,535
2018-02-12T11:01:07.265Z,495
2018-02-12T11:02:17.259Z,420
2018-02-12T11:03:27.217Z,390
2018-02-12T11:04:36.912Z,405
2018-02-12T11:05:46.864Z,415
2018-02-12T11:06:56.840Z,335
2018-02-12T11:08:06.841Z,320
2018-02-12T11:09:16.800Z,305
2018-02-12T11:10:27.019Z,310
2018-02-12T11:11:36.961Z,305
2018-02-12T11:12:46.916Z,345
2018-02-12T11:13:56.420Z,450
2018-02-12T11:15:06.129Z,970
2018-02-12T11:16:16.165Z,765
2018-02-12T11:17:26.138Z,680
2018-02-12T11:18:35.873Z,710
2018-02-12T11:19:45.570Z,1005
2018-02-12T11:20:55.510Z,1850
2018-02-12T11:22:04.956Z,2370
2018-02-12T11:23:14.941Z,955
2018-02-12T11:24:24.927Z,970
2018-02-12T11:25:34.387Z,2150
2018-02-12T11:26:44.352Z,800
2018-02-12T11:27:54.323Z,730
2018-02-12T11:29:04.294Z,690
2018-02-12T11:30:14.264Z,770
2018-02-12T11:31:24.263Z,845
2018-02-12T11:32:34.215Z,1710
2018-02-12T11:33:43.929Z,490
2018-02-12T11:34:53.926Z,400
2018-02-12T11:36:03.394Z,315
2018-02-12T11:37:13.098Z,325
2018-02-12T11:38:23.104Z,285
2018-02-12T11:39:33.078Z,275
2018-02-12T11:40:43.311Z,250
2018-02-12T11:41:53.045Z,265
2018-02-12T11:43:03.021Z,295
2018-02-12T11:44:12.988Z,335
2018-02-12T11:45:22.972Z,350
2018-02-12T11:46:32.703Z,330
2018-02-12T11:47:42.428Z,325
2018-02-12T11:48:52.380Z,350
2018-02-12T11:50:02.095Z,465
2018-02-12T11:51:11.829Z,470
2018-02-12T11:52:21.800Z,455
2018-02-12T11:53:31.780Z,470
2018-02-12T11:54:41.486Z,480
2018-02-12T11:55:51.225Z,510
2018-02-12T11:57:01.214Z,460
2018-02-12T11:58:11.206Z,430
2018-02-12T11:59:21.166Z,375
2018-02-12T12:00:31.150Z,370
2018-02-12T12:01:41.175Z,380
2018-02-12T12:02:51.129Z,400
2018-02-12T12:04:00.574Z,440
2018-02-12T12:05:10.559Z,525
2018-02-12T12:06:19.994Z,565
2018-02-12T12:07:29.944Z,485
2018-02-12T12:08:39.913Z,505
2018-02-12T12:09:49.887Z,660
2018-02-12T12:10:59.582Z,850
2018-02-12T12:12:09.561Z,900
2018-02-12T12:13:19.516Z,2390
2018-02-12T12:14:29.541Z,2370
2018-02-12T12:15:39.504Z,965
2018-02-12T12:16:49.505Z,740
2018-02-12T12:17:58.944Z,640
2018-02-12T12:19:08.670Z,555
2018-02-12T12:20:18.399Z,485
2018-02-12T12:21:28.364Z,425
2018-02-12T12:22:38.339Z,385
2018-02-12T12:23:48.314Z,385
2018-02-12T12:24:58.283Z,395
2018-02-12T12:26:08.273Z,385
2018-02-12T12:27:17.469Z,415
2018-02-12T12:28:27.174Z,455
2018-02-12T12:29:36.674Z,540
2018-02-12T12:30:46.628Z,715
2018-02-12T12:31:56.610Z,2340
2018-02-12T12:33:06.668Z,2355
2018-02-12T12:34:16.151Z,2420
2018-02-12T12:35:26.181Z,2505
2018-02-12T12:36:35.731Z,2230
2018-02-12T12:37:45.720Z,2080
2018-02-12T12:38:55.712Z,2375
2018-02-12T12:40:05.693Z,900
2018-02-12T12:41:15.724Z,675
2018-02-12T12:42:25.723Z,820
2018-02-12T12:43:35.700Z,2550
2018-02-12T12:44:45.688Z,2485
2018-02-12T12:45:55.661Z,2375
2018-02-12T12:47:05.636Z,2370
2018-02-12T12:48:15.364Z,2380
2018-02-12T12:49:25.333Z,2385
2018-02-12T12:50:35.289Z,2470
2018-02-12T12:51:45.284Z,2510
2018-02-12T12:52:55.256Z,2540
2018-02-12T12:54:05.240Z,2455
2018-02-12T12:55:15.245Z,2190
2018-02-12T12:56:24.961Z,2445
2018-02-12T12:57:34.676Z,2610
2018-02-12T12:58:44.650Z,1585
2018-02-12T12:59:54.650Z,1775
2018-02-12T13:01:04.167Z,2500
2018-02-12T13:02:14.138Z,2530
2018-02-12T13:03:24.088Z,2440
2018-02-12T13:04:34.057Z,2460
2018-02-12T13:05:44.026Z,2365
2018-02-12T13:06:53.998Z,2410
2018-02-12T13:08:03.948Z,2505
2018-02-12T13:09:13.897Z,1935
2018-02-12T13:10:23.854Z,940
2018-02-12T13:11:33.842Z,1000
2018-02-12T13:12:43.550Z,910
2018-02-12T13:13:53.510Z,1760
2018-02-12T13:15:03.502Z,820
2018-02-12T13:16:13.465Z,715
2018-02-12T13:17:23.430Z,785
2018-02-12T13:18:33.398Z,1005
2018-02-12T13:19:43.350Z,740
2018-02-12T13:20:53.059Z,1560
2018-02-12T13:22:02.770Z,745
2018-02-12T13:23:12.754Z,1720
2018-02-12T13:24:22.748Z,695
2018-02-12T13:25:32.727Z,645
2018-02-12T13:26:42.683Z,625
2018-02-12T13:27:52.650Z,560
2018-02-12T13:29:02.363Z,480
2018-02-12T13:30:12.356Z,395
2018-02-12T13:31:22.304Z,340
2018-02-12T13:32:32.062Z,340
2018-02-12T13:33:42.095Z,360
2018-02-12T13:34:52.032Z,385
2018-02-12T13:36:01.993Z,435
2018-02-12T13:37:11.694Z,465
2018-02-12T13:38:21.396Z,485
2018-02-12T13:39:31.362Z,470
2018-02-12T13:40:41.064Z,470
2018-02-12T13:41:51.039Z,530
2018-02-12T13:43:00.992Z,850
2018-02-12T13:44:10.964Z,575
2018-02-12T13:45:20.672Z,570
2018-02-12T13:46:30.637Z,1345
2018-02-12T13:47:40.329Z,570
2018-02-12T13:48:50.312Z,1980
2018-02-12T13:50:00.313Z,2115
2018-02-12T13:51:10.271Z,2205
2018-02-12T13:52:20.243Z,2175
2018-02-12T13:53:29.950Z,2040
2018-02-12T13:54:39.926Z,400
2018-02-12T13:55:49.672Z,340
2018-02-12T13:56:59.618Z,320
2018-02-12T13:58:09.596Z,325
2018-02-12T13:59:19.563Z,345
2018-02-12T14:00:29.530Z,375
2018-02-12T14:01:39.509Z,390
2018-02-12T14:02:49.491Z,390
2018-02-12T14:03:59.450Z,385
2018-02-12T14:05:08.924Z,445
2018-02-12T14:06:19.151Z,1865
2018-02-12T14:07:29.116Z,845
2018-02-12T14:08:39.079Z,1110
2018-02-12T14:09:48.774Z,555
2018-02-12T14:10:58.481Z,575
2018-02-12T14:12:08.175Z,710
2018-02-12T14:13:18.143Z,1005
2018-02-12T14:14:28.104Z,425
2018-02-12T14:15:37.829Z,400
2018-02-12T14:16:47.778Z,395
2018-02-12T14:17:57.750Z,435
2018-02-12T14:19:07.705Z,445
2018-02-12T14:20:17.684Z,475
2018-02-12T14:21:27.726Z,1270
2018-02-12T14:22:37.422Z,495
2018-02-12T14:23:47.389Z,445
2018-02-12T14:24:57.344Z,430
2018-02-12T14:26:06.784Z,430
2018-02-12T14:27:16.751Z,445
2018-02-12T14:28:26.705Z,470
2018-02-12T14:29:36.655Z,895
2018-02-12T14:30:46.669Z,510
2018-02-12T14:31:56.618Z,655
2018-02-12T14:33:06.570Z,1310
2018-02-12T14:34:16.518Z,1020
2018-02-12T14:35:26.218Z,580
2018-02-12T14:36:36.172Z,1450
2018-02-12T14:37:45.878Z,1505
2018-02-12T14:38:55.582Z,1565
2018-02-12T14:40:05.544Z,1575
2018-02-12T14:41:15.511Z,1430
2018-02-12T14:42:25.484Z,590
2018-02-12T14:43:35.171Z,1370
2018-02-12T14:44:45.133Z,1370
2018-02-12T14:45:55.094Z,530
2018-02-12T14:47:05.062Z,750
2018-02-12T14:48:15.026Z,1135
2018-02-12T14:49:24.731Z,430
2018-02-12T14:50:34.790Z,375
2018-02-12T14:51:44.756Z,370
2018-02-12T14:52:54.452Z,455
2018-02-12T14:54:04.142Z,970
2018-02-12T14:55:14.092Z,1070
2018-02-12T14:56:23.912Z,1065
2018-02-12T14:57:33.875Z,1075
2018-02-12T14:58:43.838Z,1030
2018-02-12T14:59:53.816Z,1005
2018-02-12T15:01:03.785Z,1035
2018-02-12T15:02:13.775Z,1035
2018-02-12T15:03:23.732Z,1025
2018-02-12T15:04:33.432Z,995
2018-02-12T15:05:43.137Z,1000
2018-02-12T15:06:52.846Z,1005
2018-02-12T15:08:02.292Z,965
2018-02-12T15:09:12.012Z,925
2018-02-12T15:10:21.985Z,840
2018-02-12T15:11:31.950Z,645
2018-02-12T15:12:41.648Z,555
2018-02-12T15:13:51.422Z,445
2018-02-12T15:15:01.378Z,650
2018-02-12T15:16:11.333Z,645
2018-02-12T15:17:21.303Z,685
2018-02-12T15:18:31.019Z,350
2018-02-12T15:19:41.068Z,515
2018-02-12T15:20:51.045Z,555
2018-02-12T15:22:01.007Z,530
2018-02-12T15:23:10.981Z,455
2018-02-12T15:24:20.429Z,505
2018-02-12T15:25:30.397Z,490
2018-02-12T15:26:40.369Z,465
2018-02-12T15:27:50.336Z,315
2018-02-12T15:29:00.295Z,290
2018-02-12T15:30:10.267Z,450
2018-02-12T15:31:20.225Z,415
2018-02-12T15:32:29.935Z,430
2018-02-12T15:33:39.663Z,360
2018-02-12T15:34:49.632Z,290
2018-02-12T15:35:59.598Z,245
2018-02-12T15:37:09.570Z,200
2018-02-12T15:38:19.538Z,145
2018-02-12T15:39:29.492Z,125
2018-02-12T15:40:39.181Z,115
2018-02-12T15:41:48.920Z,105
2018-02-12T15:42:58.642Z,100
2018-02-12T15:44:08.596Z,95
2018-02-12T15:45:18.542Z,95
2018-02-12T15:46:28.511Z,90
2018-02-12T15:47:38.204Z,90
2018-02-12T15:48:47.914Z,85
2018-02-12T15:49:57.872Z,80
2018-02-12T15:51:07.814Z,80
2018-02-12T15:52:17.252Z,75
2018-02-12T15:53:27.205Z,70
2018-02-12T15:54:37.157Z,65
2018-02-12T15:55:47.118Z,60
2018-02-12T15:56:57.221Z,60
2018-02-12T15:58:06.927Z,55
2018-02-12T15:59:16.716Z,50
2018-02-12T16:00:26.438Z,50
2018-02-12T16:01:36.398Z,45
2018-02-12T16:02:45.942Z,45
2018-02-12T16:03:55.900Z,40
2018-02-12T16:05:05.836Z,35
2018-02-12T16:06:15.790Z,35
2018-02-12T16:07:25.999Z,30
2018-02-12T16:08:35.965Z,30
2018-02-12T16:09:45.921Z,25
2018-02-12T16:10:55.900Z,25
2018-02-12T16:12:05.851Z,20
2018-02-12T16:13:15.546Z,20
2018-02-12T16:14:25.251Z,20
2018-02-12T16:15:35.224Z,15
2018-02-12T16:16:45.164Z,15
2018-02-12T16:17:54.854Z,15
2018-02-12T16:19:04.559Z,10
2018-02-12T16:20:14.530Z,10
2018-02-12T16:21:24.713Z,10
2018-02-12T16:22:34.444Z,10
2018-02-12T16:23:44.137Z,5
2018-02-12T16:24:54.093Z,5
2018-02-12T16:26:03.797Z,5
2018-02-12T16:27:13.241Z,5
2018-02-12T16:28:22.676Z,5
2018-02-12T16:29:32.624Z,0
2018-02-12T16:30:42.579Z,0